KHGR

Hagerstown Regional-Richard A Henson Field Airport

Hagerstown, Maryland, USA
METAR KHGR 201553Z 07004KT 10SM BKN031 BKN047 OVC060 23/18 A3014 RMK AO2 SLP211 T02280178
Observed Flight Rules
Aug-20 @ 15:53 UTC (31 minutes ago) Visual Flight Rules
Wind Visibility Clouds
70° at 4 knots 10 miles
  • Broken at 3,100' AGL
  • Broken at 4,700' AGL
  • Overcast at 6,000' AGL
Temperatures Readings
Current 23°C / 73°F
Dewpoint 18°C / 64°F
Humidity 74%
Altimeter 30.14" Hg
Pressure 1021.1 hPa
Elevation 224
METAR KHGR 201553Z 07004KT 10SM BKN031 BKN047 OVC060 23/18 A3014 RMK AO2 SLP211 T02280178
Observed Flight Rules
Aug-20 @ 15:53 UTC
(31 minutes ago)
VFR
Wind Visibility
70° at 4 knots 10 miles
Clouds
  • Broken at 3,100' AGL
  • Broken at 4,700' AGL
  • Overcast at 6,000' AGL
Temperature Dewpoint
23°C / 73°F 18°C / 64°F
Humidity Altimeter Pressure
74% 30.14" Hg 1021.1 hPa